IAS weather

Iaşi Airport
Iaşi, Iaşi, Romania

Public forecast

Using degrees Celsius for public forecast. Weather courtesy of forecast.io.

Current aviation weather report (METAR) for Iaşi Airport

Retrieved 2019/12/16 07:30 UTC (0 seconds ago):

LRIA 160730Z 08006KT CAVOK 04/02 Q1020 R14/19//95

Closest aviation forecast (TAF) to Iaşi Airport

Forecast is more than 12 hours old.

Closest forecast is Bacău Airport, 49.0 nm (90.8 km) SW. Retrieved 2010/08/31 20:30 UTC (9 years ago):

TAF LRBC 312030Z 3121/0203 CNL